Brownfield, Mississippi
Current Conditions -  °F | °C
As of 4:15 PM on Sunday 23 Nov 2014 (Local Time) from KCRX Reporting Station
Light Rain Light Rain  
Wind Chill: 64°   Ceiling: 1800
Heat Index: 64°   Visibility: 3mi
Dew Point: 61°   Wind: 13mph
Humidity: 88%   Direction: 170°S
Pressure: 29.33"   Gusts: 23mph
Location:  34.9572°N, 88.9195°W
Report Text: KCRX 232215Z AUTO 17011G20KT 3SM -RA FEW011 BKN018 OVC065 18/16 A2933 RMK AO2
Loading
Personal Weather Stations






























Interactive Weather Map New forecast layout! Learn more

10-Day Weather Forecast

Advertisements
Track Severe Weather on mobile